TimeEST,TemperatureF,Dew PointF,Humidity,Sea Level PressureIn,VisibilityMPH,Wind Direction,Wind SpeedMPH,Gust SpeedMPH,PrecipitationIn,Events,Conditions,WindDirDegrees,DateUTC
12:52 AM,35.6,23.0,60,30.35,10.0,NNW,3.5,-,N/A,,Clear,340,2012-12-14 05:52:00
1:52 AM,28.0,24.1,85,30.36,9.0,North,4.6,-,N/A,,Clear,350,2012-12-14 06:52:00
2:52 AM,28.9,24.1,82,30.35,10.0,NW,4.6,-,N/A,,Clear,320,2012-12-14 07:52:00
3:52 AM,30.0,23.0,75,30.35,10.0,NNW,5.8,-,N/A,,Clear,340,2012-12-14 08:52:00
4:52 AM,30.0,24.1,79,30.35,10.0,North,5.8,-,N/A,,Clear,350,2012-12-14 09:52:00
5:52 AM,28.9,24.1,82,30.37,9.0,NNW,6.9,-,N/A,,Clear,330,2012-12-14 10:52:00
6:52 AM,25.0,21.9,88,30.38,9.0,NNW,3.5,-,N/A,,Clear,340,2012-12-14 11:52:00
7:52 AM,26.1,23.0,88,30.37,6.0,Calm,Calm,-,N/A,,Clear,0,2012-12-14 12:52:00
8:52 AM,37.0,28.9,73,30.39,7.0,NW,3.5,-,N/A,,Clear,320,2012-12-14 13:52:00
9:52 AM,42.1,28.0,58,30.40,7.0,North,3.5,-,N/A,,Clear,360,2012-12-14 14:52:00
10:52 AM,48.0,30.0,50,30.40,7.0,Calm,Calm,-,N/A,,Clear,0,2012-12-14 15:52:00
11:52 AM,52.0,27.0,38,30.35,9.0,Calm,Calm,-,N/A,,Clear,0,2012-12-14 16:52:00
12:52 PM,53.1,26.1,35,30.32,10.0,Calm,Calm,-,N/A,,Clear,0,2012-12-14 17:52:00
1:52 PM,55.0,26.1,33,30.29,10.0,Calm,Calm,-,N/A,,Clear,0,2012-12-14 18:52:00
2:52 PM,57.0,26.1,30,30.26,10.0,Calm,Calm,-,N/A,,Partly Cloudy,0,2012-12-14 19:52:00
3:52 PM,59.0,25.0,27,30.26,10.0,Calm,Calm,-,N/A,,Scattered Clouds,0,2012-12-14 20:52:00
4:52 PM,54.0,27.0,35,30.26,9.0,WNW,3.5,-,N/A,,Scattered Clouds,300,2012-12-14 21:52:00
5:52 PM,50.0,27.0,41,30.26,10.0,SW,3.5,-,N/A,,Scattered Clouds,230,2012-12-14 22:52:00
6:52 PM,48.0,27.0,44,30.27,10.0,West,3.5,-,N/A,,Scattered Clouds,270,2012-12-14 23:52:00
7:52 PM,45.0,27.0,49,30.27,10.0,Calm,Calm,-,N/A,,Clear,0,2012-12-15 00:52:00
8:52 PM,45.0,27.0,49,30.26,9.0,Calm,Calm,-,N/A,,Clear,0,2012-12-15 01:52:00
9:52 PM,43.0,27.0,53,30.27,9.0,Calm,Calm,-,N/A,,Partly Cloudy,0,2012-12-15 02:52:00
10:52 PM,39.9,28.9,65,30.27,9.0,Calm,Calm,-,N/A,,Partly Cloudy,0,2012-12-15 03:52:00
11:52 PM,37.0,28.9,73,30.26,8.0,North,3.5,-,N/A,,Clear,360,2012-12-15 04:52:00